createdAt,value
2022-08-22T00:00:32.429Z,19.87
2022-08-22T00:02:58.943Z,19.79
2022-08-22T00:03:08.734Z,20.37
2022-08-22T00:05:54.343Z,20.47
2022-08-22T00:08:31.612Z,20.40
2022-08-22T00:11:16.925Z,20.34
2022-08-22T00:14:01.832Z,19.78
2022-08-22T00:16:45.517Z,20.38
2022-08-22T00:19:41.719Z,20.37
2022-08-22T00:22:23.596Z,20.36
2022-08-22T00:25:07.441Z,19.26
2022-08-22T00:27:57.641Z,20.27
2022-08-22T00:30:25.811Z,20.17
2022-08-22T00:33:00.551Z,20.20
2022-08-22T00:35:34.864Z,19.61
2022-08-22T00:38:18.918Z,19.67
2022-08-22T00:41:08.271Z,20.21
2022-08-22T00:44:12.510Z,20.18
2022-08-22T00:47:03.959Z,20.11
2022-08-22T00:49:39.312Z,20.12
2022-08-22T00:52:36.492Z,19.90
2022-08-22T00:55:25.908Z,20.04
2022-08-22T00:58:28.162Z,19.94
2022-08-22T01:01:04.615Z,19.90
2022-08-22T01:03:50.910Z,19.91
2022-08-22T01:06:49.733Z,19.93
2022-08-22T01:10:00.150Z,18.27
2022-08-22T01:12:58.009Z,19.42
2022-08-22T01:15:31.439Z,19.01
2022-08-22T01:18:35.249Z,19.91
2022-08-22T01:21:34.635Z,19.90
2022-08-22T01:24:25.657Z,19.95
2022-08-22T01:27:07.878Z,19.97
2022-08-22T01:30:02.328Z,19.84
2022-08-22T01:32:48.863Z,19.74
2022-08-22T01:35:34.746Z,19.88
2022-08-22T01:38:34.933Z,19.95
2022-08-22T01:41:26.092Z,20.05
2022-08-22T01:44:21.613Z,19.39
2022-08-22T01:47:22.957Z,20.14
2022-08-22T01:50:11.827Z,19.01
2022-08-22T01:53:28.176Z,20.21
2022-08-22T01:56:18.989Z,20.19
2022-08-22T01:59:11.146Z,20.18
2022-08-22T02:01:51.675Z,20.24
2022-08-22T02:04:29.916Z,19.50
2022-08-22T02:07:13.111Z,19.55
2022-08-22T02:09:58.502Z,20.26
2022-08-22T02:12:43.228Z,20.26
2022-08-22T02:15:41.019Z,20.28
2022-08-22T02:18:16.702Z,20.32
2022-08-22T02:20:55.587Z,20.36
2022-08-22T02:23:25.949Z,20.37
2022-08-22T02:26:02.104Z,20.39
2022-08-22T02:28:57.410Z,20.40
2022-08-22T02:32:03.131Z,20.44
2022-08-22T02:34:39.995Z,20.45
2022-08-22T02:37:17.679Z,20.45
2022-08-22T02:40:06.659Z,20.49
2022-08-22T02:42:52.740Z,20.49
2022-08-22T02:45:39.265Z,20.48
2022-08-22T02:49:02.458Z,20.09
2022-08-22T02:52:06.694Z,20.33
2022-08-22T02:54:43.770Z,20.26
2022-08-22T02:57:14.706Z,19.21
2022-08-22T03:00:29.718Z,20.19
2022-08-22T03:03:03.979Z,20.17
2022-08-22T03:05:36.442Z,20.15
2022-08-22T03:08:32.539Z,20.18
2022-08-22T03:11:06.590Z,20.18
2022-08-22T03:13:38.131Z,20.21
2022-08-22T03:16:24.425Z,20.04
2022-08-22T03:19:05.058Z,20.22
2022-08-22T03:21:46.074Z,20.12
2022-08-22T03:24:23.852Z,19.60
2022-08-22T03:26:59.547Z,20.04
2022-08-22T03:29:31.299Z,20.01
2022-08-22T03:32:14.882Z,20.15
2022-08-22T03:35:04.786Z,20.17
2022-08-22T03:37:43.723Z,20.23
2022-08-22T03:40:19.612Z,20.26
2022-08-22T03:43:05.087Z,20.31
2022-08-22T03:45:44.059Z,20.34
2022-08-22T03:48:31.944Z,20.36
2022-08-22T03:51:13.072Z,20.38
2022-08-22T03:54:08.011Z,20.43
2022-08-22T03:56:38.303Z,20.38
2022-08-22T03:59:52.961Z,20.38
2022-08-22T04:02:42.878Z,20.36
2022-08-22T04:05:16.567Z,20.36
2022-08-22T04:08:01.841Z,20.35
2022-08-22T04:10:52.036Z,20.37
2022-08-22T04:13:34.012Z,20.40
2022-08-22T04:16:10.569Z,20.43
2022-08-22T04:18:52.160Z,20.27
2022-08-22T04:21:35.476Z,20.53
2022-08-22T04:24:19.221Z,20.57
2022-08-22T04:27:14.656Z,20.59
2022-08-22T04:30:09.958Z,20.64
2022-08-22T04:32:49.396Z,20.70
2022-08-22T04:35:36.584Z,20.13
2022-08-22T04:38:22.817Z,20.79
2022-08-22T04:41:01.353Z,20.83
2022-08-22T04:43:37.887Z,20.15
2022-08-22T04:46:19.252Z,20.89
2022-08-22T04:49:04.137Z,20.56
2022-08-22T04:51:37.452Z,20.57
2022-08-22T04:54:14.318Z,20.91
2022-08-22T04:57:36.272Z,21.12
2022-08-22T05:00:10.448Z,21.12
2022-08-22T05:02:41.141Z,21.14
2022-08-22T05:05:17.819Z,21.07
2022-08-22T05:07:57.077Z,20.83
2022-08-22T05:10:35.666Z,20.73
2022-08-22T05:13:15.575Z,20.71
2022-08-22T05:15:48.276Z,20.84
2022-08-22T05:18:24.013Z,20.41
2022-08-22T05:20:59.884Z,19.93
2022-08-22T05:23:50.059Z,20.28
2022-08-22T05:26:18.840Z,20.79
2022-08-22T05:28:52.931Z,21.10
2022-08-22T05:31:31.735Z,21.71
2022-08-22T05:34:07.964Z,20.90
2022-08-22T05:36:44.478Z,21.07
2022-08-22T05:39:19.905Z,20.26
2022-08-22T05:41:49.889Z,20.49
2022-08-22T05:44:26.091Z,20.22
2022-08-22T05:47:03.832Z,21.70
2022-08-22T05:49:48.249Z,21.24
2022-08-22T05:52:56.502Z,20.38
2022-08-22T05:55:43.746Z,21.18
2022-08-22T05:58:33.661Z,20.36
2022-08-22T06:01:17.838Z,22.12
2022-08-22T06:04:01.712Z,21.23
2022-08-22T06:06:30.276Z,21.59
2022-08-22T06:09:35.331Z,21.95
2022-08-22T06:12:27.551Z,22.33
2022-08-22T06:15:20.837Z,22.17
2022-08-22T06:17:50.543Z,22.40
2022-08-22T06:20:25.964Z,18.43
2022-08-22T06:22:57.998Z,22.93
2022-08-22T06:25:40.561Z,23.06
2022-08-22T06:28:15.358Z,23.12
2022-08-22T06:30:45.596Z,23.20
2022-08-22T06:33:16.211Z,22.93
2022-08-22T06:36:23.647Z,21.64
2022-08-22T06:39:27.660Z,23.32
2022-08-22T06:42:16.776Z,23.40
2022-08-22T06:44:52.564Z,22.55
2022-08-22T06:47:33.540Z,23.20
2022-08-22T06:50:06.228Z,23.59
2022-08-22T06:53:01.268Z,23.28
2022-08-22T06:55:31.564Z,23.22
2022-08-22T06:58:15.911Z,22.98
2022-08-22T07:00:46.600Z,24.05
2022-08-22T07:03:33.420Z,23.62
2022-08-22T07:06:05.914Z,23.73
2022-08-22T07:08:39.104Z,23.97
2022-08-22T07:11:11.885Z,24.23
2022-08-22T07:13:45.132Z,23.38
2022-08-22T07:16:15.432Z,23.38
2022-08-22T07:18:50.917Z,22.90
2022-08-22T07:21:29.531Z,24.53
2022-08-22T07:24:01.363Z,23.17
2022-08-22T07:26:55.215Z,24.72
2022-08-22T07:29:30.992Z,24.81
2022-08-22T07:32:17.764Z,23.33
2022-08-22T07:35:29.798Z,24.52
2022-08-22T07:38:10.046Z,24.46
2022-08-22T07:41:01.150Z,24.39
2022-08-22T07:43:38.197Z,24.53
2022-08-22T07:46:21.232Z,24.68
2022-08-22T07:49:12.038Z,24.57
2022-08-22T07:51:47.470Z,24.94
2022-08-22T07:54:19.623Z,24.58
2022-08-22T07:57:09.721Z,25.21
2022-08-22T07:59:44.664Z,24.74
2022-08-22T08:02:18.853Z,25.50
2022-08-22T08:04:53.378Z,24.79
2022-08-22T08:07:26.197Z,24.71
2022-08-22T08:10:01.275Z,24.55
2022-08-22T08:13:02.222Z,25.19
2022-08-22T08:15:31.996Z,24.55
2022-08-22T08:18:02.246Z,25.50
2022-08-22T08:20:32.783Z,24.94
2022-08-22T08:22:59.719Z,24.69
2022-08-22T08:25:30.945Z,24.80
2022-08-22T08:28:17.381Z,24.59
2022-08-22T08:30:48.206Z,25.22
2022-08-22T08:33:25.486Z,26.01
2022-08-22T08:36:07.182Z,25.43
2022-08-22T08:38:55.545Z,25.59
2022-08-22T08:41:46.591Z,25.59
2022-08-22T08:44:17.077Z,25.59
2022-08-22T08:47:00.749Z,25.77
2022-08-22T08:49:42.218Z,25.93
2022-08-22T08:52:37.132Z,25.28
2022-08-22T08:55:30.053Z,25.88
2022-08-22T08:58:10.296Z,25.96
2022-08-22T09:01:19.626Z,25.11
2022-08-22T09:03:57.293Z,26.14
2022-08-22T09:06:42.373Z,25.56
2022-08-22T09:09:31.098Z,26.19
2022-08-22T09:12:38.165Z,25.75
2022-08-22T09:15:37.579Z,26.35
2022-08-22T09:18:27.026Z,26.33
2022-08-22T09:21:41.522Z,26.42
2022-08-22T09:24:20.781Z,25.53
2022-08-22T09:26:57.276Z,25.63
2022-08-22T09:30:00.449Z,26.63
2022-08-22T09:32:36.008Z,26.70
2022-08-22T09:35:19.596Z,26.77
2022-08-22T09:38:07.770Z,26.96
2022-08-22T09:40:50.542Z,27.09
2022-08-22T09:43:38.055Z,26.29
2022-08-22T09:46:22.254Z,26.57
2022-08-22T09:49:24.119Z,27.06
2022-08-22T09:52:38.677Z,26.02
2022-08-22T09:55:40.247Z,26.84
2022-08-22T09:58:25.945Z,26.43
2022-08-22T10:01:59.434Z,24.98
2022-08-22T10:04:47.020Z,24.68
2022-08-22T10:07:44.573Z,26.45
2022-08-22T10:10:56.666Z,26.45
2022-08-22T10:13:57.375Z,27.03
2022-08-22T10:17:01.744Z,27.25
2022-08-22T10:19:46.608Z,25.90
2022-08-22T10:22:30.155Z,27.30
2022-08-22T10:25:28.512Z,26.81
2022-08-22T10:28:21.254Z,26.86
2022-08-22T10:31:34.448Z,27.67
2022-08-22T10:34:13.330Z,27.03
2022-08-22T10:37:00.780Z,27.96
2022-08-22T10:39:36.817Z,27.23
2022-08-22T10:42:28.467Z,27.16
2022-08-22T10:45:03.548Z,28.23
2022-08-22T10:47:39.678Z,28.40
2022-08-22T10:50:45.008Z,28.67
2022-08-22T10:53:37.760Z,28.90
2022-08-22T10:56:13.676Z,28.47
2022-08-22T10:59:01.592Z,29.18
2022-08-22T11:01:41.636Z,29.07
2022-08-22T11:04:19.315Z,29.24
2022-08-22T11:07:36.633Z,28.50
2022-08-22T11:10:20.188Z,28.19
2022-08-22T11:13:07.626Z,28.52
2022-08-22T11:15:47.575Z,29.83
2022-08-22T11:18:34.054Z,28.83
2022-08-22T11:21:37.807Z,30.24
2022-08-22T11:24:56.793Z,29.86
2022-08-22T11:27:49.972Z,29.16
2022-08-22T11:31:00.983Z,29.78
2022-08-22T11:33:47.473Z,28.93
2022-08-22T11:36:56.306Z,30.19
2022-08-22T11:39:32.352Z,30.19
2022-08-22T11:42:15.020Z,30.18
2022-08-22T11:44:57.617Z,29.78
2022-08-22T11:47:33.924Z,29.98
2022-08-22T11:50:13.377Z,29.39
2022-08-22T11:52:56.409Z,29.70
2022-08-22T11:55:33.002Z,27.95
2022-08-22T11:58:07.596Z,29.12
2022-08-22T12:00:43.784Z,28.04
2022-08-22T12:03:25.696Z,27.43
2022-08-22T12:05:58.878Z,28.13
2022-08-22T12:08:40.767Z,27.90
2022-08-22T12:11:11.799Z,27.27
2022-08-22T12:14:05.887Z,27.50
2022-08-22T12:16:53.235Z,27.36
2022-08-22T12:19:32.991Z,27.37
2022-08-22T12:22:05.996Z,27.55
2022-08-22T12:25:03.103Z,27.84
2022-08-22T12:27:48.641Z,27.91
2022-08-22T12:30:54.984Z,27.77
2022-08-22T12:33:39.932Z,28.70
2022-08-22T12:36:37.273Z,28.98
2022-08-22T12:39:12.782Z,29.99
2022-08-22T12:42:04.552Z,30.86
2022-08-22T12:45:17.713Z,30.93
2022-08-22T12:48:15.509Z,31.03
2022-08-22T12:50:57.354Z,30.04
2022-08-22T12:54:06.783Z,30.66
2022-08-22T12:56:47.730Z,29.55
2022-08-22T12:59:24.797Z,30.39
2022-08-22T13:02:01.063Z,30.18
2022-08-22T13:04:34.191Z,30.39
2022-08-22T13:07:22.728Z,32.58
2022-08-22T13:09:54.750Z,33.34
2022-08-22T13:12:26.559Z,33.65
2022-08-22T13:15:07.299Z,32.57
2022-08-22T13:17:40.501Z,32.32
2022-08-22T13:20:16.724Z,31.58
2022-08-22T13:22:48.933Z,31.17
2022-08-22T13:25:26.113Z,30.46
2022-08-22T13:28:03.817Z,28.27
2022-08-22T13:30:39.438Z,27.56
2022-08-22T13:33:14.824Z,26.99
2022-08-22T13:35:44.686Z,26.64
2022-08-22T13:38:17.528Z,26.14
2022-08-22T13:40:53.972Z,25.48
2022-08-22T13:43:53.040Z,25.77
2022-08-22T13:46:26.370Z,25.45
2022-08-22T13:49:00.850Z,25.51
2022-08-22T13:51:57.975Z,25.51
2022-08-22T13:54:45.371Z,25.37
2022-08-22T13:57:24.609Z,25.02
2022-08-22T14:00:05.062Z,24.72
2022-08-22T14:02:59.289Z,24.37
2022-08-22T14:05:35.641Z,23.70
2022-08-22T14:08:25.895Z,24.32
2022-08-22T14:11:06.603Z,24.31
2022-08-22T14:13:43.917Z,24.53
2022-08-22T14:16:27.538Z,24.62
2022-08-22T14:19:06.245Z,24.51
2022-08-22T14:21:46.785Z,24.45
2022-08-22T14:24:19.886Z,24.36
2022-08-22T14:27:15.875Z,24.12
2022-08-22T14:29:55.235Z,24.29
2022-08-22T14:32:26.674Z,24.41
2022-08-22T14:35:21.702Z,24.55
2022-08-22T14:37:54.844Z,23.99
2022-08-22T14:40:29.271Z,23.39
2022-08-22T14:43:00.769Z,23.19
2022-08-22T14:45:37.325Z,22.48
2022-08-22T14:48:31.611Z,22.79
2022-08-22T14:51:08.439Z,22.56
2022-08-22T14:53:37.630Z,22.01
2022-08-22T14:56:05.991Z,22.52
2022-08-22T14:58:36.375Z,21.95
2022-08-22T15:01:13.848Z,22.68
2022-08-22T15:03:50.653Z,22.10
2022-08-22T15:06:47.871Z,22.76
2022-08-22T15:09:31.041Z,22.30
2022-08-22T15:12:06.973Z,22.98
2022-08-22T15:14:37.167Z,22.84
2022-08-22T15:17:07.505Z,22.57
2022-08-22T15:19:41.649Z,22.04
2022-08-22T15:22:25.691Z,22.45
2022-08-22T15:25:05.119Z,22.17
2022-08-22T15:27:36.264Z,20.04
2022-08-22T15:30:18.655Z,22.64
2022-08-22T15:32:50.259Z,22.65
2022-08-22T15:35:31.333Z,22.92
2022-08-22T15:37:58.835Z,23.10
2022-08-22T15:40:46.057Z,22.28
2022-08-22T15:43:35.202Z,23.62
2022-08-22T15:46:23.880Z,23.73
2022-08-22T15:48:57.864Z,23.86
2022-08-22T15:51:41.285Z,23.70
2022-08-22T15:54:24.706Z,23.85
2022-08-22T15:56:52.293Z,23.70
2022-08-22T15:59:29.754Z,23.36
2022-08-22T16:02:04.865Z,22.92
2022-08-22T16:04:55.467Z,23.17
2022-08-22T16:07:57.897Z,23.24
2022-08-22T16:10:24.897Z,23.24
2022-08-22T16:13:13.334Z,23.23
2022-08-22T16:15:52.865Z,23.28
2022-08-22T16:18:55.127Z,23.13
2022-08-22T16:21:25.603Z,23.04
2022-08-22T16:23:54.276Z,23.10
2022-08-22T16:26:21.012Z,23.15
2022-08-22T16:29:14.701Z,23.10
2022-08-22T16:31:46.874Z,23.10
2022-08-22T16:34:16.726Z,23.04
2022-08-22T16:37:22.853Z,23.00
2022-08-22T16:43:06.951Z,22.44
2022-08-22T16:45:37.069Z,21.41
2022-08-22T16:48:45.992Z,22.59
2022-08-22T16:51:21.370Z,22.54
2022-08-22T16:54:11.502Z,22.43
2022-08-22T16:56:53.679Z,21.90
2022-08-22T16:59:26.977Z,22.55
2022-08-22T17:02:26.459Z,22.62
2022-08-22T17:04:53.073Z,22.57
2022-08-22T17:07:19.715Z,22.38
2022-08-22T17:10:00.123Z,20.97
2022-08-22T17:12:26.912Z,22.12
2022-08-22T17:18:20.181Z,22.48
2022-08-22T17:20:52.380Z,22.41
2022-08-22T17:23:39.626Z,22.36
2022-08-22T17:26:14.167Z,22.33
2022-08-22T17:29:22.935Z,22.06
2022-08-22T17:32:10.456Z,22.19
2022-08-22T17:34:56.488Z,22.23
2022-08-22T17:37:41.935Z,21.82
2022-08-22T17:40:39.492Z,22.41
2022-08-22T17:43:49.362Z,22.48
2022-08-22T17:46:42.709Z,22.45
2022-08-22T17:49:12.727Z,22.48
2022-08-22T17:51:54.978Z,22.11
2022-08-22T17:54:29.912Z,22.39
2022-08-22T17:57:33.889Z,22.52
2022-08-22T18:00:13.218Z,22.54
2022-08-22T18:02:55.018Z,22.43
2022-08-22T18:05:31.697Z,22.02
2022-08-22T18:08:38.524Z,21.84
2022-08-22T18:11:28.137Z,22.02
2022-08-22T18:14:04.961Z,22.03
2022-08-22T18:16:44.229Z,21.28
2022-08-22T18:19:53.574Z,21.81
2022-08-22T18:22:34.522Z,21.55
2022-08-22T18:25:06.407Z,21.55
2022-08-22T18:28:04.293Z,21.52
2022-08-22T18:30:52.590Z,21.46
2022-08-22T18:33:22.351Z,21.55
2022-08-22T18:36:00.519Z,21.59
2022-08-22T18:38:46.551Z,21.52
2022-08-22T18:41:26.067Z,21.47
2022-08-22T18:43:59.385Z,21.15
2022-08-22T18:46:38.284Z,21.38
2022-08-22T18:49:24.979Z,21.38
2022-08-22T18:52:13.672Z,21.37
2022-08-22T18:55:02.527Z,21.46
2022-08-22T18:57:41.523Z,21.53
2022-08-22T19:00:21.988Z,21.52
2022-08-22T19:03:10.138Z,21.60
2022-08-22T19:06:00.674Z,21.69
2022-08-22T19:08:48.356Z,21.68
2022-08-22T19:11:39.205Z,21.70
2022-08-22T19:14:27.706Z,21.72
2022-08-22T19:17:16.332Z,21.78
2022-08-22T19:20:27.823Z,21.50
2022-08-22T19:23:32.587Z,21.77
2022-08-22T19:26:26.608Z,21.80
2022-08-22T19:29:26.836Z,21.61
2022-08-22T19:32:02.010Z,21.68
2022-08-22T19:34:32.708Z,21.87
2022-08-22T19:37:32.134Z,21.88
2022-08-22T19:39:59.484Z,21.87
2022-08-22T19:42:31.571Z,21.47
2022-08-22T19:45:09.965Z,21.91
2022-08-22T19:47:43.347Z,21.93
2022-08-22T19:50:24.933Z,21.95
2022-08-22T19:53:30.959Z,21.44
2022-08-22T19:56:05.924Z,22.00
2022-08-22T19:58:43.080Z,21.94
2022-08-22T20:01:37.422Z,21.61
2022-08-22T20:04:22.967Z,21.85
2022-08-22T20:07:16.813Z,21.70
2022-08-22T20:10:05.383Z,21.72
2022-08-22T20:12:44.455Z,21.66
2022-08-22T20:15:21.636Z,21.10
2022-08-22T20:20:39.169Z,21.62
2022-08-22T20:23:29.234Z,20.99
2022-08-22T20:26:00.026Z,21.47
2022-08-22T20:28:50.809Z,20.68
2022-08-22T20:31:26.220Z,21.89
2022-08-22T20:33:58.959Z,21.83
2022-08-22T20:36:27.549Z,21.66
2022-08-22T20:39:00.295Z,21.26
2022-08-22T20:41:38.096Z,21.74
2022-08-22T20:44:04.953Z,21.78
2022-08-22T20:46:47.066Z,21.83
2022-08-22T20:49:28.682Z,21.87
2022-08-22T20:52:29.455Z,21.72
2022-08-22T20:55:00.886Z,21.91
2022-08-22T20:57:27.993Z,21.53
2022-08-22T21:00:06.733Z,21.91
2022-08-22T21:02:51.668Z,21.61
2022-08-22T21:05:22.920Z,21.87
2022-08-22T21:08:01.961Z,21.87
2022-08-22T21:10:48.136Z,21.85
2022-08-22T21:13:27.796Z,21.83
2022-08-22T21:16:11.100Z,21.77
2022-08-22T21:18:40.743Z,21.72
2022-08-22T21:21:17.327Z,21.07
2022-08-22T21:23:48.577Z,21.27
2022-08-22T21:26:28.456Z,21.80
2022-08-22T21:29:09.346Z,21.70
2022-08-22T21:32:04.276Z,21.75
2022-08-22T21:34:41.488Z,21.76
2022-08-22T21:37:24.133Z,21.76
2022-08-22T21:39:59.064Z,21.41
2022-08-22T21:42:35.246Z,21.76
2022-08-22T21:45:08.514Z,21.77
2022-08-22T21:47:41.278Z,21.63
2022-08-22T21:50:18.796Z,21.77
2022-08-22T21:52:54.570Z,21.79
2022-08-22T21:55:34.362Z,21.79
2022-08-22T21:58:35.848Z,21.82
2022-08-22T22:01:27.393Z,21.75
2022-08-22T22:03:58.980Z,21.76
2022-08-22T22:06:26.589Z,21.76
2022-08-22T22:08:55.873Z,21.45
2022-08-22T22:11:22.777Z,21.51
2022-08-22T22:13:51.739Z,21.69
2022-08-22T22:16:27.784Z,21.41
2022-08-22T22:18:54.899Z,21.72
2022-08-22T22:21:21.734Z,21.74
2022-08-22T22:23:50.503Z,21.56
2022-08-22T22:26:18.161Z,21.73
2022-08-22T22:28:50.312Z,21.25
2022-08-22T22:31:23.084Z,21.71
2022-08-22T22:33:52.541Z,21.72
2022-08-22T22:36:25.660Z,21.25
2022-08-22T22:38:53.504Z,21.45
2022-08-22T22:41:23.402Z,21.78
2022-08-22T22:43:50.813Z,21.81
2022-08-22T22:46:17.524Z,21.71
2022-08-22T22:48:44.274Z,21.81
2022-08-22T22:51:12.480Z,21.82
2022-08-22T22:53:42.608Z,21.13
2022-08-22T22:56:12.962Z,21.43
2022-08-22T22:58:40.254Z,21.63
2022-08-22T23:01:12.545Z,21.55
2022-08-22T23:03:39.388Z,21.43
2022-08-22T23:06:14.641Z,21.57
2022-08-22T23:08:42.412Z,21.08
2022-08-22T23:11:21.441Z,20.36
2022-08-22T23:13:48.916Z,20.91
2022-08-22T23:16:18.858Z,20.62
2022-08-22T23:18:48.404Z,20.75
2022-08-22T23:21:20.019Z,20.88
2022-08-22T23:23:47.192Z,20.75
2022-08-22T23:26:14.232Z,21.19
2022-08-22T23:28:41.432Z,20.78
2022-08-22T23:31:13.347Z,21.25
2022-08-22T23:33:40.467Z,21.33
2022-08-22T23:36:18.708Z,21.13
2022-08-22T23:38:49.638Z,21.01
2022-08-22T23:41:23.751Z,21.34
2022-08-22T23:43:54.992Z,21.41
2022-08-22T23:46:24.409Z,21.43
2022-08-22T23:48:52.446Z,20.89
2022-08-22T23:51:22.901Z,21.34
2022-08-22T23:53:51.390Z,20.93
2022-08-22T23:56:30.045Z,21.35
2022-08-22T23:59:05.795Z,20.48
